Time;durP1;ratioP1;P1;durP2;ratioP2;P2;SDS_P1;SDS_P2;PMS_P1;PMS_P2;Temp;Humidity;BMP_temperature;BMP_pressure;BME280_temperature;BME280_humidity;BME280_pressure;Samples;Min_cycle;Max_cycle;Signal;HPM_P1;HPM_P2
2022/01/11 01:05:56;;;;;;;37.15;19.55;;;0.50;99.90;;;;;;6300094;22;20015;-96
2022/01/11 01:16:21;;;;;;;57.13;22.67;;;0.50;99.90;;;;;;6207218;22;20015;-96
2022/01/11 01:18:48;;;;;;;47.75;20.67;;;0.50;99.90;;;;;;6199165;22;20011;-95
2022/01/11 01:24:10;;;;;;;57.65;20.42;;;0.50;99.90;;;;;;6268194;22;20024;-96
2022/01/11 01:26:37;;;;;;;51.08;22.45;;;0.50;99.90;;;;;;6277432;22;20007;-96
2022/01/11 01:39:25;;;;;;;50.22;20.75;;;0.50;99.90;;;;;;6276257;22;20024;-96
2022/01/11 02:06:36;;;;;;;29.42;18.63;;;0.60;99.90;;;;;;6184858;23;20288;-96
2022/01/11 02:19:30;;;;;;;35.88;19.70;;;0.60;99.90;;;;;;6295071;22;20027;-96
2022/01/11 02:21:59;;;;;;;46.55;22.10;;;0.60;99.90;;;;;;6282502;22;19999;-96
2022/01/11 02:24:28;;;;;;;41.42;21.75;;;0.60;99.90;;;;;;6283736;22;20007;-97
2022/01/11 02:26:54;;;;;;;55.83;23.67;;;0.60;99.90;;;;;;6307459;22;20007;-96
2022/01/11 02:34:44;;;;;;;44.10;21.63;;;0.60;99.90;;;;;;6290424;22;20023;-96
2022/01/11 02:37:09;;;;;;;39.42;19.77;;;0.60;99.90;;;;;;6305665;22;20004;-96
2022/01/11 02:39:36;;;;;;;43.03;19.80;;;0.60;99.90;;;;;;6275227;22;20036;-96
2022/01/11 02:42:02;;;;;;;41.97;20.77;;;0.60;99.90;;;;;;6275953;22;20007;-96
2022/01/11 02:44:28;;;;;;;50.58;21.08;;;0.60;99.90;;;;;;6251966;22;20038;-96
2022/01/11 02:46:54;;;;;;;60.50;21.02;;;0.60;99.90;;;;;;6183699;22;20604;-92
2022/01/11 02:49:20;;;;;;;47.03;20.67;;;0.60;99.90;;;;;;6254851;22;20008;-96
2022/01/11 02:51:46;;;;;;;45.85;19.95;;;0.60;99.90;;;;;;6254184;22;20012;-96
2022/01/11 02:56:47;;;;;;;41.05;19.60;;;0.60;99.90;;;;;;6324546;22;20047;-96
2022/01/11 02:59:14;;;;;;;56.63;21.30;;;0.60;99.90;;;;;;6215774;22;20024;-96
2022/01/11 03:01:39;;;;;;;54.42;20.42;;;0.70;99.90;;;;;;6279121;22;20037;-94
2022/01/11 03:06:34;;;;;;;37.50;20.35;;;0.60;99.90;;;;;;6239768;22;20090;-96
2022/01/11 03:09:00;;;;;;;41.80;20.23;;;0.50;99.90;;;;;;6186984;23;20009;-96
2022/01/11 03:14:03;;;;;;;36.35;19.63;;;0.50;99.90;;;;;;6231826;22;20011;-96
2022/01/11 03:19:04;;;;;;;39.63;20.88;;;0.50;99.90;;;;;;6331303;22;20015;-96
2022/01/11 03:24:31;;;;;;;47.35;22.35;;;0.60;99.90;;;;;;6295197;22;20007;31
2022/01/11 03:29:37;;;;;;;41.20;20.88;;;0.50;99.90;;;;;;6250217;22;20229;-96
2022/01/11 03:32:05;;;;;;;36.13;19.27;;;0.50;99.90;;;;;;6247987;22;20033;-96
2022/01/11 03:34:31;;;;;;;37.92;19.10;;;0.50;99.90;;;;;;6185692;22;20020;-96
2022/01/11 03:51:24;;;;;;;45.05;22.13;;;0.50;99.90;;;;;;6247700;22;20018;-96
2022/01/11 03:59:36;;;;;;;44.38;22.20;;;0.50;99.90;;;;;;6159378;22;20072;-96
2022/01/11 04:09:49;;;;;;;47.70;23.33;;;0.50;99.90;;;;;;6261712;22;20037;-96
2022/01/11 04:25:32;;;;;;;49.38;23.95;;;0.60;99.90;;;;;;6251982;22;20015;-96
2022/01/11 04:30:50;;;;;;;49.80;24.33;;;0.60;99.90;;;;;;6209106;22;20033;-96
2022/01/11 04:35:49;;;;;;;50.65;24.75;;;0.60;99.90;;;;;;6227056;22;20020;-95
2022/01/11 04:55:09;;;;;;;48.53;26.00;;;0.60;99.90;;;;;;6247030;22;20015;-96
2022/01/11 06:48:15;;;;;;;60.80;28.98;;;0.50;99.90;;;;;;6143110;23;20042;-96
2022/01/11 06:50:42;;;;;;;57.17;26.02;;;0.50;99.90;;;;;;6166650;22;20043;-96
2022/01/11 06:53:08;;;;;;;61.92;28.23;;;0.50;99.90;;;;;;6247585;23;20027;-96
2022/01/11 06:55:38;;;;;;;55.05;26.17;;;0.50;99.90;;;;;;6243812;23;20068;-96
2022/01/11 06:58:04;;;;;;;65.10;28.63;;;0.50;99.90;;;;;;6234901;22;20026;-96
2022/01/11 07:03:23;;;;;;;67.78;29.27;;;0.50;99.90;;;;;;6294230;22;20368;-95
2022/01/11 07:05:49;;;;;;;62.38;29.05;;;0.40;99.90;;;;;;6224479;22;20015;-96
2022/01/11 07:08:15;;;;;;;67.45;30.75;;;0.50;99.90;;;;;;6224515;22;20204;-95
2022/01/11 07:10:40;;;;;;;56.67;28.80;;;0.50;99.90;;;;;;6246800;22;20047;-95
2022/01/11 07:13:07;;;;;;;57.55;28.35;;;0.50;99.90;;;;;;6261094;22;20126;-96
2022/01/11 07:15:32;;;;;;;61.72;28.33;;;0.50;99.90;;;;;;6230862;22;20029;-96
2022/01/11 07:17:58;;;;;;;57.67;26.33;;;0.50;99.90;;;;;;6220507;22;20055;-96
2022/01/11 07:20:24;;;;;;;62.80;27.02;;;0.50;99.90;;;;;;6220136;22;20496;-96
2022/01/11 07:22:50;;;;;;;50.97;24.35;;;0.50;99.90;;;;;;6219553;22;20364;-95
2022/01/11 07:25:16;;;;;;;59.03;25.60;;;0.50;99.90;;;;;;6245959;22;20020;-94
2022/01/11 07:27:41;;;;;;;49.95;23.70;;;0.40;99.90;;;;;;6219333;22;20016;-96
2022/01/11 07:30:08;;;;;;;48.80;23.95;;;0.40;99.90;;;;;;6223959;22;20322;-95
2022/01/11 07:32:35;;;;;;;49.42;22.95;;;0.50;99.90;;;;;;6243659;22;20439;-95
2022/01/11 07:35:02;;;;;;;54.42;23.85;;;0.50;99.90;;;;;;6223264;22;20016;-96
2022/01/11 07:37:27;;;;;;;44.08;22.70;;;0.50;99.90;;;;;;6221842;22;20020;-95
2022/01/11 07:39:53;;;;;;;44.80;21.35;;;0.50;99.90;;;;;;6234103;22;20027;-95
2022/01/11 07:42:22;;;;;;;41.65;21.48;;;0.50;99.90;;;;;;6236048;22;20012;-95
2022/01/11 07:44:51;;;;;;;44.00;21.92;;;0.60;99.90;;;;;;6257689;22;20016;-96
2022/01/11 07:47:18;;;;;;;41.60;20.85;;;0.50;99.90;;;;;;6251444;22;20020;-94
2022/01/11 07:49:43;;;;;;;42.45;20.63;;;0.50;99.90;;;;;;6221892;22;20020;-94
2022/01/11 07:52:09;;;;;;;39.20;19.65;;;0.60;99.90;;;;;;6256973;22;20019;-96
2022/01/11 07:54:54;;;;;;;40.42;19.02;;;0.60;99.90;;;;;;6265113;22;20019;-96
2022/01/11 07:57:20;;;;;;;35.88;19.80;;;0.60;99.90;;;;;;6237351;22;20372;-96
2022/01/11 07:59:46;;;;;;;40.83;20.63;;;0.60;99.90;;;;;;6235858;22;20071;-96
2022/01/11 08:02:11;;;;;;;42.63;22.83;;;0.50;99.90;;;;;;6241757;22;20063;-95
2022/01/11 08:04:37;;;;;;;37.70;19.75;;;0.60;99.90;;;;;;6231021;22;20018;-95
2022/01/11 08:07:03;;;;;;;41.10;19.92;;;0.60;99.90;;;;;;6222820;22;20016;-95
2022/01/11 08:09:32;;;;;;;37.40;19.65;;;0.70;99.90;;;;;;6219908;22;20020;-95
2022/01/11 08:11:58;;;;;;;36.45;19.58;;;0.70;99.90;;;;;;6222534;22;20018;-95
2022/01/11 08:14:25;;;;;;;35.25;17.73;;;0.70;99.90;;;;;;6247677;22;20016;-95
2022/01/11 08:16:51;;;;;;;34.80;17.85;;;0.70;99.90;;;;;;6220549;22;20059;-96
2022/01/11 08:19:20;;;;;;;36.60;18.67;;;0.70;99.90;;;;;;6222332;22;20022;-96
2022/01/11 08:21:47;;;;;;;33.20;17.98;;;0.70;99.90;;;;;;6224342;22;20027;-95
2022/01/11 08:24:13;;;;;;;32.13;17.40;;;0.80;99.90;;;;;;6229177;22;20023;-94
2022/01/11 08:26:38;;;;;;;30.10;17.13;;;0.80;99.90;;;;;;6242663;22;20004;-95
2022/01/11 08:29:04;;;;;;;29.73;16.30;;;0.80;99.90;;;;;;6242522;22;20016;-96
2022/01/11 08:31:30;;;;;;;29.63;16.70;;;0.80;99.90;;;;;;6244713;22;20016;-96
2022/01/11 08:33:56;;;;;;;27.98;14.98;;;0.80;99.90;;;;;;6249580;22;20019;-96
2022/01/11 08:36:21;;;;;;;27.52;15.43;;;0.90;99.90;;;;;;6240281;22;20019;-92
2022/01/11 08:38:47;;;;;;;29.63;15.93;;;0.90;99.90;;;;;;6254345;22;20027;-94
2022/01/11 08:41:13;;;;;;;26.92;14.57;;;0.90;99.90;;;;;;6220885;22;20023;-93
2022/01/11 08:43:39;;;;;;;27.70;14.93;;;0.90;99.90;;;;;;6218212;22;20018;-92
2022/01/11 08:46:05;;;;;;;30.60;15.23;;;0.90;99.90;;;;;;6218911;22;20126;-93
2022/01/11 08:48:32;;;;;;;28.45;15.93;;;0.90;99.90;;;;;;6243114;22;20018;-92
2022/01/11 08:50:57;;;;;;;27.80;14.82;;;0.90;99.90;;;;;;6243573;22;20440;-94
2022/01/11 08:53:23;;;;;;;26.17;14.88;;;0.90;99.90;;;;;;6245057;22;20022;-94
2022/01/11 08:55:50;;;;;;;28.80;14.93;;;0.90;99.90;;;;;;6218903;22;20098;-92
2022/01/11 08:58:20;;;;;;;23.52;14.65;;;0.90;99.90;;;;;;6244736;22;20027;-93
2022/01/11 09:00:47;;;;;;;31.13;16.13;;;0.90;99.90;;;;;;6217363;22;20318;-92
2022/01/11 09:03:13;;;;;;;26.75;14.95;;;1.00;99.90;;;;;;6222082;22;20015;-92
2022/01/11 09:05:39;;;;;;;27.10;15.13;;;1.00;99.90;;;;;;6242981;22;20024;-93
2022/01/11 09:08:05;;;;;;;31.02;15.48;;;1.00;99.90;;;;;;6219497;22;20015;-92
2022/01/11 09:10:30;;;;;;;26.25;15.90;;;1.00;99.90;;;;;;6219099;22;20091;-93
2022/01/11 09:12:56;;;;;;;27.08;15.63;;;1.00;99.90;;;;;;6219465;22;20470;-93
2022/01/11 09:15:22;;;;;;;26.65;15.23;;;1.10;99.90;;;;;;6218222;22;20517;-93
2022/01/11 09:17:48;;;;;;;24.83;14.35;;;1.10;99.90;;;;;;6241560;22;20026;-93
2022/01/11 09:20:16;;;;;;;25.10;15.43;;;1.10;99.90;;;;;;6216703;22;20027;-94
2022/01/11 09:22:42;;;;;;;27.90;16.27;;;1.10;99.90;;;;;;6217644;22;20082;-94
2022/01/11 09:25:09;;;;;;;24.58;14.13;;;1.10;99.90;;;;;;6244545;22;20019;-93
2022/01/11 09:27:34;;;;;;;27.20;15.07;;;1.10;99.90;;;;;;6218321;22;20018;-93
2022/01/11 09:30:00;;;;;;;26.35;16.20;;;1.20;99.90;;;;;;6244250;22;20444;-95
2022/01/11 09:32:26;;;;;;;25.70;14.40;;;1.10;99.90;;;;;;6219125;22;20011;-93
2022/01/11 09:34:53;;;;;;;26.83;15.43;;;1.20;99.90;;;;;;6218905;22;20030;-93
2022/01/11 09:37:19;;;;;;;26.95;15.30;;;1.20;99.90;;;;;;6219390;22;20027;-91
2022/01/11 09:39:45;;;;;;;23.50;14.23;;;1.30;99.90;;;;;;6241898;22;20026;-92
2022/01/11 09:42:11;;;;;;;26.50;15.27;;;1.30;99.90;;;;;;6243433;22;20090;-92
2022/01/11 09:44:40;;;;;;;25.15;14.43;;;1.30;99.90;;;;;;6240895;22;20368;-93
2022/01/11 09:47:11;;;;;;;26.27;15.77;;;1.30;99.90;;;;;;6243910;22;20023;-93
2022/01/11 09:49:38;;;;;;;28.45;15.40;;;1.30;99.90;;;;;;6218556;22;20098;-93
2022/01/11 09:52:07;;;;;;;26.10;15.23;;;1.30;99.90;;;;;;6244539;22;20012;-96
2022/01/11 09:54:37;;;;;;;26.90;14.73;;;1.30;99.90;;;;;;6222527;22;20023;-96
2022/01/11 09:57:03;;;;;;;24.63;15.02;;;1.50;99.90;;;;;;6219894;22;20003;-96
2022/01/11 09:59:30;;;;;;;28.20;15.80;;;1.30;99.90;;;;;;6218817;22;20011;-96
2022/01/11 10:01:56;;;;;;;26.80;16.38;;;1.40;99.90;;;;;;6218917;22;20425;-95
2022/01/11 10:04:28;;;;;;;28.35;15.68;;;1.40;99.90;;;;;;6246125;22;20012;-95
2022/01/11 10:06:58;;;;;;;27.30;15.60;;;1.40;99.90;;;;;;6219495;22;20054;-96
2022/01/11 10:09:31;;;;;;;27.90;16.73;;;1.40;99.90;;;;;;6219245;22;20020;-94
2022/01/11 10:11:59;;;;;;;27.58;15.43;;;1.40;99.90;;;;;;6219752;22;20034;-95
2022/01/11 10:14:26;;;;;;;26.27;15.35;;;1.50;99.90;;;;;;6244388;22;20031;-95
2022/01/11 10:17:12;;;;;;;27.00;16.23;;;1.50;99.90;;;;;;6219342;22;20039;-95
2022/01/11 10:19:40;;;;;;;27.70;17.38;;;1.50;99.90;;;;;;6223381;22;20015;-96
2022/01/11 10:22:12;;;;;;;24.45;14.98;;;1.60;99.90;;;;;;6239541;22;20039;-96
2022/01/11 10:24:50;;;;;;;30.85;16.75;;;1.50;99.90;;;;;;6260748;22;20023;-96
2022/01/11 10:27:28;;;;;;;29.08;16.75;;;1.50;99.90;;;;;;6252413;22;20020;-96
2022/01/11 10:30:07;;;;;;;27.35;15.75;;;1.40;99.90;;;;;;6270903;22;19999;-96
2022/01/11 10:32:39;;;;;;;25.10;15.02;;;1.50;99.90;;;;;;6218796;22;20318;-96
2022/01/11 10:35:17;;;;;;;27.35;15.35;;;1.60;99.90;;;;;;6250036;22;20027;-95
2022/01/11 10:37:49;;;;;;;27.05;15.93;;;1.60;99.90;;;;;;6228053;22;20016;-95
2022/01/11 10:40:18;;;;;;;27.98;15.68;;;1.60;99.90;;;;;;6224279;22;20051;-96
2022/01/11 10:42:50;;;;;;;28.20;16.73;;;1.70;99.90;;;;;;6249746;22;20035;-96
2022/01/11 10:45:16;;;;;;;26.63;15.95;;;1.70;99.90;;;;;;6217923;22;20034;-91
2022/01/11 10:47:48;;;;;;;28.25;15.35;;;1.70;99.90;;;;;;6216850;22;20602;-92
2022/01/11 10:50:26;;;;;;;27.27;15.73;;;1.80;99.90;;;;;;6218094;22;20094;-93
2022/01/11 10:52:51;;;;;;;26.63;15.30;;;1.80;99.90;;;;;;6243301;22;20319;-94
2022/01/11 10:55:20;;;;;;;27.27;15.15;;;1.80;99.90;;;;;;6218366;22;20022;-94
2022/01/11 10:57:58;;;;;;;26.45;15.05;;;1.80;99.90;;;;;;6216388;22;20007;-94
2022/01/11 11:00:27;;;;;;;29.30;15.98;;;1.90;99.90;;;;;;6218493;22;20016;-96
2022/01/11 11:02:57;;;;;;;28.35;15.48;;;1.90;99.90;;;;;;6218620;22;20022;-92
2022/01/11 11:05:37;;;;;;;25.90;15.82;;;2.00;99.90;;;;;;6219063;22;20020;-94
2022/01/11 11:08:09;;;;;;;25.33;15.55;;;2.00;99.90;;;;;;6221550;22;20015;-95
2022/01/11 11:11:04;;;;;;;25.85;15.38;;;2.10;99.90;;;;;;6218646;22;20441;-94
2022/01/11 11:13:35;;;;;;;27.92;15.68;;;2.10;99.90;;;;;;6221456;22;20020;-93
2022/01/11 11:16:20;;;;;;;26.67;14.75;;;2.10;99.90;;;;;;6245645;22;20008;-95
2022/01/11 11:18:52;;;;;;;26.75;15.48;;;2.20;99.90;;;;;;6220838;22;20020;-93
2022/01/11 11:21:26;;;;;;;26.38;14.25;;;2.20;99.90;;;;;;6234555;22;20019;-96
2022/01/11 11:24:03;;;;;;;28.67;15.90;;;2.20;99.90;;;;;;6224903;22;20016;-94
2022/01/11 11:29:14;;;;;;;31.17;16.55;;;2.40;99.90;;;;;;6315805;22;20023;-96
2022/01/11 11:31:40;;;;;;;30.15;15.77;;;2.40;99.90;;;;;;6250173;22;20023;-96
2022/01/11 11:34:08;;;;;;;27.77;14.75;;;2.50;99.90;;;;;;6279127;22;20015;-96
2022/01/11 11:36:40;;;;;;;27.77;14.57;;;2.50;99.90;;;;;;6260689;22;20027;-95
2022/01/11 11:39:19;;;;;;;24.52;14.43;;;2.60;99.90;;;;;;6259063;22;20019;-94
2022/01/11 11:41:56;;;;;;;27.60;14.85;;;2.80;99.90;;;;;;6221790;23;20399;-96
2022/01/11 11:44:24;;;;;;;27.17;14.85;;;2.70;99.90;;;;;;6194437;23;20030;-95
2022/01/11 11:46:54;;;;;;;28.65;14.88;;;2.80;99.90;;;;;;6192928;23;20017;-96
2022/01/11 11:49:52;;;;;;;26.45;14.18;;;2.80;99.90;;;;;;6212910;23;20035;-95
2022/01/11 11:52:31;;;;;;;26.92;13.68;;;2.90;99.90;;;;;;6189933;23;20107;-95
2022/01/11 11:55:23;;;;;;;28.20;15.32;;;2.90;99.90;;;;;;6193858;23;20024;-94
2022/01/11 11:57:52;;;;;;;25.80;13.93;;;3.00;99.90;;;;;;6191867;23;20353;-96
2022/01/11 12:00:41;;;;;;;23.90;14.07;;;3.10;99.90;;;;;;6188440;23;20077;-96
2022/01/11 12:03:16;;;;;;;23.60;13.25;;;3.20;99.90;;;;;;6188911;23;20095;-93
2022/01/11 12:05:45;;;;;;;26.30;14.30;;;3.40;99.90;;;;;;6190951;23;20020;-96
2022/01/11 12:08:39;;;;;;;27.48;15.75;;;3.40;99.90;;;;;;6218044;23;20023;-96
2022/01/11 12:11:10;;;;;;;26.00;14.80;;;3.60;99.90;;;;;;6191652;23;20027;-95
2022/01/11 12:13:38;;;;;;;26.15;14.68;;;3.70;99.90;;;;;;6215812;23;20028;-96
2022/01/11 12:18:43;;;;;;;29.15;14.93;;;4.00;99.90;;;;;;6279498;22;20024;-96
2022/01/11 12:21:10;;;;;;;25.40;14.90;;;4.10;99.90;;;;;;6231309;22;20016;-96
2022/01/11 12:23:36;;;;;;;25.80;13.35;;;4.20;99.90;;;;;;6221482;22;20012;-96
2022/01/11 12:26:16;;;;;;;25.23;14.88;;;4.30;99.90;;;;;;6223411;22;20019;-94
2022/01/11 12:28:43;;;;;;;26.88;14.77;;;4.40;99.90;;;;;;6219360;22;20015;-94
2022/01/11 12:31:25;;;;;;;25.15;15.52;;;4.50;99.90;;;;;;6219211;22;20020;-90
2022/01/11 12:33:50;;;;;;;24.88;14.80;;;4.60;99.90;;;;;;6243992;22;20424;-92
2022/01/11 12:36:16;;;;;;;24.17;13.32;;;4.60;99.90;;;;;;6218520;22;20022;-92
2022/01/11 12:39:08;;;;;;;24.35;14.43;;;4.80;99.90;;;;;;6242769;22;20022;-92
2022/01/11 12:41:48;;;;;;;;;;;4.60;99.90;;;;;;6218676;22;20317;-92
2022/01/11 12:44:22;;;;;;;24.85;13.35;;;4.60;99.90;;;;;;6219437;22;19969;-93
2022/01/11 12:46:55;;;;;;;25.77;13.98;;;4.70;99.90;;;;;;6218006;22;20016;-91
2022/01/11 12:49:22;;;;;;;25.80;13.75;;;4.70;99.90;;;;;;6244221;22;20098;-92
2022/01/11 12:51:52;;;;;;;24.35;13.82;;;4.60;99.90;;;;;;6217136;22;20058;-92
2022/01/11 12:54:26;;;;;;;25.02;14.43;;;4.70;99.90;;;;;;6244176;22;20024;-92
2022/01/11 12:57:14;;;;;;;25.90;15.38;;;4.70;99.90;;;;;;6218766;22;20035;-92
2022/01/11 12:59:44;;;;;;;24.90;14.40;;;4.70;99.90;;;;;;6217943;22;20034;-92
2022/01/11 13:02:11;;;;;;;23.30;13.45;;;4.70;99.90;;;;;;6219034;22;20014;-92
2022/01/11 13:04:51;;;;;;;23.65;14.00;;;4.70;99.90;;;;;;6217085;22;20331;-92
2022/01/11 13:07:18;;;;;;;25.92;14.35;;;4.70;99.90;;;;;;6243196;22;20015;-92
2022/01/11 13:10:06;;;;;;;24.40;14.32;;;4.70;99.90;;;;;;6216981;22;20099;-92
2022/01/11 13:12:35;;;;;;;24.73;13.27;;;4.70;99.90;;;;;;6217492;22;20007;-91
2022/01/11 13:15:07;;;;;;;27.45;15.27;;;4.70;99.90;;;;;;6218785;22;20026;-94
2022/01/11 13:17:50;;;;;;;26.05;14.30;;;4.60;99.90;;;;;;6231086;22;20138;-94
2022/01/11 13:20:16;;;;;;;27.95;16.17;;;4.60;99.90;;;;;;6245522;22;20465;-95
2022/01/11 13:23:08;;;;;;;23.92;13.38;;;4.60;99.90;;;;;;6271360;22;20047;-96
2022/01/11 13:25:36;;;;;;;26.42;14.23;;;4.70;99.90;;;;;;6245626;22;20012;-90
2022/01/11 13:28:02;;;;;;;24.38;14.68;;;4.70;99.90;;;;;;6268908;22;20016;-91
2022/01/11 13:30:36;;;;;;;27.45;14.70;;;4.60;99.90;;;;;;6268115;22;20073;-91
2022/01/11 13:33:02;;;;;;;26.23;14.40;;;4.60;99.90;;;;;;6268665;22;20011;-91
2022/01/11 13:35:28;;;;;;;25.48;14.13;;;4.60;99.90;;;;;;6241374;22;20822;-91
2022/01/11 13:37:54;;;;;;;22.70;13.32;;;4.60;99.90;;;;;;6243190;22;20292;-90
2022/01/11 13:40:27;;;;;;;25.80;14.82;;;4.60;99.90;;;;;;6267721;22;20016;-91
2022/01/11 13:43:01;;;;;;;24.00;13.40;;;4.60;99.90;;;;;;6269590;22;20063;-96
2022/01/11 13:45:34;;;;;;;24.05;14.38;;;4.50;99.90;;;;;;6244712;22;20012;-95
2022/01/11 13:48:16;;;;;;;25.27;14.00;;;4.50;99.90;;;;;;6245339;22;20027;-96
2022/01/11 13:50:56;;;;;;;;;;;4.50;99.90;;;;;;6244903;22;20012;-94
2022/01/11 13:53:30;;;;;;;26.95;13.93;;;4.40;99.90;;;;;;6245449;22;19919;-93
2022/01/11 13:56:21;;;;;;;26.63;13.55;;;4.40;99.90;;;;;;6269620;22;20015;-94
2022/01/11 13:58:54;;;;;;;24.15;14.25;;;4.40;99.90;;;;;;6243898;22;20348;-94
2022/01/11 14:01:24;;;;;;;25.80;14.65;;;4.40;99.90;;;;;;6245069;22;20447;-94
2022/01/11 14:03:50;;;;;;;25.13;14.85;;;4.40;99.90;;;;;;6244317;22;20012;-96
2022/01/11 14:06:23;;;;;;;25.95;13.30;;;4.30;99.90;;;;;;6269252;22;20024;-94
2022/01/11 14:08:53;;;;;;;26.92;14.85;;;4.30;99.90;;;;;;6268823;22;20065;-91
2022/01/11 14:11:34;;;;;;;27.65;14.73;;;4.30;99.90;;;;;;6243258;22;20011;-91
2022/01/11 14:14:01;;;;;;;25.50;14.02;;;4.30;99.90;;;;;;6242280;22;20039;-91
2022/01/11 14:16:33;;;;;;;26.15;14.60;;;4.30;99.90;;;;;;6245414;22;20046;-92
2022/01/11 14:19:03;;;;;;;28.63;14.48;;;4.20;99.90;;;;;;6248972;22;20463;-92
2022/01/11 14:21:29;;;;;;;28.70;14.85;;;4.20;99.90;;;;;;6288528;22;20010;-93
2022/01/11 14:23:54;;;;;;;26.20;14.38;;;4.20;99.90;;;;;;6275071;22;20311;-94
2022/01/11 14:26:32;;;;;;;25.70;14.15;;;4.20;99.90;;;;;;6256873;22;20470;-92
2022/01/11 14:28:58;;;;;;;26.08;14.23;;;4.20;99.90;;;;;;6272824;22;20053;-93
2022/01/11 14:31:26;;;;;;;28.60;15.40;;;4.30;99.90;;;;;;6277554;22;20003;-93
2022/01/11 14:33:52;;;;;;;26.92;14.70;;;4.30;99.90;;;;;;6252991;22;20019;-92
2022/01/11 14:36:21;;;;;;;31.42;15.32;;;4.30;99.90;;;;;;6250038;22;20355;-92
2022/01/11 14:38:50;;;;;;;26.70;14.43;;;4.20;99.90;;;;;;6247227;22;20414;-91
2022/01/11 14:41:37;;;;;;;27.80;15.50;;;4.30;99.90;;;;;;6248708;22;20018;-93
2022/01/11 14:44:07;;;;;;;27.58;14.57;;;4.30;99.90;;;;;;6249271;22;20457;-92
2022/01/11 14:46:40;;;;;;;28.60;15.05;;;4.30;99.90;;;;;;6248205;22;20058;-92
2022/01/11 14:49:12;;;;;;;27.23;15.50;;;4.30;99.90;;;;;;6247762;22;20098;-92
2022/01/11 14:51:47;;;;;;;28.25;15.63;;;4.20;99.90;;;;;;6249912;22;20492;-95
2022/01/11 14:54:17;;;;;;;29.13;15.18;;;4.30;99.90;;;;;;6250654;22;20031;-92
2022/01/11 14:56:47;;;;;;;29.55;15.88;;;4.20;99.90;;;;;;6249802;22;20030;-95
2022/01/11 14:59:15;;;;;;;29.20;14.30;;;4.20;99.90;;;;;;6230730;22;20007;-92
2022/01/11 15:01:48;;;;;;;29.90;15.82;;;4.20;99.90;;;;;;6273907;22;20022;-91
2022/01/11 15:04:21;;;;;;;30.73;15.68;;;4.20;99.90;;;;;;6276423;22;20105;-96
2022/01/11 15:06:53;;;;;;;27.23;14.60;;;4.20;99.90;;;;;;6253016;22;20020;-95
2022/01/11 15:09:23;;;;;;;30.58;15.95;;;4.20;99.90;;;;;;6251780;22;20011;-96
2022/01/11 15:11:56;;;;;;;26.55;15.65;;;4.20;99.90;;;;;;6279541;22;20020;-96
2022/01/11 15:14:27;;;;;;;29.23;17.10;;;4.20;99.90;;;;;;6246150;22;20015;-95
2022/01/11 15:16:57;;;;;;;31.17;16.15;;;4.20;99.90;;;;;;6250549;22;20023;-96
2022/01/11 15:19:23;;;;;;;31.02;16.17;;;4.20;99.90;;;;;;6279455;22;20019;-94
2022/01/11 15:21:48;;;;;;;31.02;16.27;;;4.20;99.90;;;;;;6256734;22;20025;-93
2022/01/11 15:24:14;;;;;;;29.17;15.93;;;4.10;99.90;;;;;;6260952;22;20018;-96
2022/01/11 15:26:41;;;;;;;31.52;16.90;;;4.20;99.90;;;;;;6261359;22;20025;-95
2022/01/11 15:29:13;;;;;;;30.85;16.42;;;4.10;99.90;;;;;;6261586;22;20011;-96
2022/01/11 15:31:40;;;;;;;30.15;15.88;;;4.10;99.90;;;;;;6260593;22;20041;-95
2022/01/11 15:34:06;;;;;;;29.05;15.77;;;4.10;99.90;;;;;;6262141;22;20016;-95
2022/01/11 15:36:32;;;;;;;31.17;17.35;;;4.10;99.90;;;;;;6257598;22;20071;-96
2022/01/11 15:38:59;;;;;;;30.80;15.40;;;4.10;99.90;;;;;;6282628;22;20019;-95
2022/01/11 15:41:30;;;;;;;30.15;15.70;;;4.10;99.90;;;;;;6253816;22;20015;-96
2022/01/11 15:43:57;;;;;;;32.50;15.95;;;4.10;99.90;;;;;;6251327;22;20016;-94
2022/01/11 15:46:24;;;;;;;31.52;15.52;;;4.00;99.90;;;;;;6251389;22;20089;-96
2022/01/11 15:48:50;;;;;;;32.30;16.67;;;4.00;99.90;;;;;;6250768;22;20106;-96
2022/01/11 15:51:17;;;;;;;27.95;15.35;;;4.00;99.90;;;;;;6251147;22;20452;-95
2022/01/11 15:53:44;;;;;;;34.85;17.88;;;4.00;99.90;;;;;;6276608;22;20468;-96
2022/01/11 15:56:10;;;;;;;32.67;17.67;;;4.00;99.90;;;;;;6277523;22;20015;-95
2022/01/11 15:58:35;;;;;;;29.95;16.45;;;4.00;99.90;;;;;;6251836;22;20007;-95
2022/01/11 16:01:01;;;;;;;32.83;17.27;;;3.90;99.90;;;;;;6254222;22;20119;-96
2022/01/11 16:03:27;;;;;;;30.48;16.75;;;3.90;99.90;;;;;;6254469;22;20011;-96
2022/01/11 16:05:52;;;;;;;30.23;16.02;;;3.90;99.90;;;;;;6253960;22;20054;-96
2022/01/11 16:08:18;;;;;;;31.10;16.83;;;3.90;99.90;;;;;;6280099;22;20023;-96
2022/01/11 16:10:44;;;;;;;32.67;17.98;;;3.90;99.90;;;;;;6253259;22;20064;-96
2022/01/11 16:13:13;;;;;;;32.25;17.08;;;3.90;99.90;;;;;;6253172;22;20026;-96
2022/01/11 16:15:39;;;;;;;31.65;17.58;;;3.80;99.90;;;;;;6279131;22;20019;-96
2022/01/11 16:18:05;;;;;;;31.35;17.75;;;3.80;99.90;;;;;;6253802;22;20343;-96
2022/01/11 16:20:31;;;;;;;32.47;17.13;;;3.80;99.90;;;;;;6253273;22;20011;-96
2022/01/11 16:22:57;;;;;;;31.65;17.40;;;3.80;99.90;;;;;;6279572;22;20440;-96
2022/01/11 16:25:26;;;;;;;31.90;16.92;;;3.80;99.90;;;;;;6253948;22;20022;-96
2022/01/11 16:27:53;;;;;;;35.90;18.90;;;3.80;99.90;;;;;;6252609;22;20180;-95
2022/01/11 16:30:26;;;;;;;33.35;17.15;;;3.80;99.90;;;;;;6251246;22;20015;-96
2022/01/11 16:32:54;;;;;;;33.35;17.77;;;3.80;99.90;;;;;;6252141;22;20271;-96
2022/01/11 16:35:20;;;;;;;31.20;16.48;;;3.80;99.90;;;;;;6277763;22;20045;-95
2022/01/11 16:37:49;;;;;;;31.52;17.55;;;3.80;99.90;;;;;;6276873;22;20011;-95
2022/01/11 16:42:38;;;;;;;33.97;18.02;;;3.80;99.90;;;;;;6278089;22;20099;-96
2022/01/11 16:43:03;;;;;;;35.13;17.85;;;3.70;99.90;;;;;;6278155;22;20026;-94
2022/01/11 16:45:30;;;;;;;35.30;18.38;;;3.80;99.90;;;;;;6250433;22;20007;-95
2022/01/11 16:47:56;;;;;;;33.67;17.27;;;3.70;99.90;;;;;;6251767;22;20030;-94
2022/01/11 16:50:22;;;;;;;35.35;17.73;;;3.70;99.90;;;;;;6254743;22;20007;-95
2022/01/11 16:52:51;;;;;;;34.63;17.45;;;3.70;99.90;;;;;;6261827;22;20012;-96
2022/01/11 16:55:17;;;;;;;34.53;17.58;;;3.70;99.90;;;;;;6256470;22;20019;-96
2022/01/11 16:57:43;;;;;;;35.22;18.17;;;3.70;99.90;;;;;;6253318;22;20076;-95
2022/01/11 17:00:11;;;;;;;32.22;17.60;;;3.60;99.90;;;;;;6259614;22;20015;-95
2022/01/11 17:02:37;;;;;;;32.70;17.48;;;3.60;99.90;;;;;;6255814;22;20111;-96
2022/01/11 17:05:03;;;;;;;35.85;18.80;;;3.60;99.90;;;;;;6257514;22;20022;-96
2022/01/11 17:07:32;;;;;;;34.15;18.90;;;3.60;99.90;;;;;;6253557;22;20022;-95
2022/01/11 17:10:10;;;;;;;32.40;16.42;;;3.60;99.90;;;;;;6278710;22;20027;-96
2022/01/11 17:12:43;;;;;;;35.53;17.63;;;3.60;99.90;;;;;;6254111;22;20007;-95
2022/01/11 17:15:09;;;;;;;32.72;18.15;;;3.50;99.90;;;;;;6259491;22;20015;-96
2022/01/11 17:17:35;;;;;;;31.73;17.45;;;3.50;99.90;;;;;;6253627;22;20221;-96
2022/01/11 17:20:02;;;;;;;31.75;16.48;;;3.50;99.90;;;;;;6278677;22;20019;-94
2022/01/11 17:22:28;;;;;;;30.88;16.42;;;3.50;99.90;;;;;;6297019;22;20016;-96
2022/01/11 17:24:57;;;;;;;35.53;18.20;;;3.50;99.90;;;;;;6295212;22;20084;-96
2022/01/11 17:27:23;;;;;;;36.53;17.55;;;3.60;99.90;;;;;;6305669;22;20091;-96
2022/01/11 17:29:49;;;;;;;33.22;16.33;;;3.50;99.90;;;;;;6271244;22;20019;-96
2022/01/11 17:32:15;;;;;;;34.28;17.67;;;3.50;99.90;;;;;;6284975;22;20086;-96
2022/01/11 17:34:41;;;;;;;32.22;17.67;;;3.50;99.90;;;;;;6253355;22;20019;-96
2022/01/11 17:37:06;;;;;;;33.00;17.20;;;3.40;99.90;;;;;;6252320;22;20375;-96
2022/01/11 17:39:32;;;;;;;33.00;17.77;;;3.50;99.90;;;;;;6250565;22;20046;-96
2022/01/11 17:41:58;;;;;;;33.42;17.33;;;3.40;99.90;;;;;;6262793;22;20015;-96
2022/01/11 17:44:25;;;;;;;31.85;18.30;;;3.40;99.90;;;;;;6272673;22;20049;-96
2022/01/11 17:46:52;;;;;;;33.88;18.50;;;3.40;99.90;;;;;;6252579;22;20486;-96
2022/01/11 17:49:18;;;;;;;33.28;17.70;;;3.40;99.90;;;;;;6252711;22;20019;-96
2022/01/11 17:51:44;;;;;;;31.13;16.48;;;3.40;99.90;;;;;;6251553;22;20018;-96
2022/01/11 17:54:10;;;;;;;30.92;17.13;;;3.50;99.90;;;;;;6279108;22;20440;-96
2022/01/11 17:56:38;;;;;;;32.33;18.25;;;3.40;99.90;;;;;;6252571;22;20464;-95
2022/01/11 17:59:04;;;;;;;32.72;17.13;;;3.40;99.90;;;;;;6280354;22;20007;-96
2022/01/11 18:01:30;;;;;;;34.60;17.90;;;3.50;99.90;;;;;;6279951;22;20030;-96
2022/01/11 18:03:56;;;;;;;33.03;18.27;;;3.40;99.90;;;;;;6281882;22;20012;-96
2022/01/11 18:06:22;;;;;;;31.63;16.52;;;3.40;99.90;;;;;;6280697;22;20022;-96
2022/01/11 18:08:49;;;;;;;34.83;17.33;;;3.40;99.90;;;;;;6282115;22;20066;-96
2022/01/11 18:11:16;;;;;;;33.25;17.05;;;3.40;99.90;;;;;;6259981;22;20011;-96
2022/01/11 18:13:43;;;;;;;33.65;18.48;;;3.50;99.90;;;;;;6255061;22;20026;-96